createdAt,value
2023-03-05T00:00:39.677Z,101142.28
2023-03-05T00:03:06.079Z,101139.59
2023-03-05T00:05:32.484Z,101133.75
2023-03-05T00:07:58.949Z,101125.06
2023-03-05T00:10:25.432Z,101135.63
2023-03-05T00:12:53.117Z,101127.34
2023-03-05T00:15:20.412Z,101125.00
2023-03-05T00:17:46.773Z,101127.09
2023-03-05T00:20:13.621Z,101120.25
2023-03-05T00:22:40.013Z,101120.97
2023-03-05T00:25:07.311Z,101117.03
2023-03-05T00:27:33.670Z,101101.41
2023-03-05T00:30:01.392Z,101104.38
2023-03-05T00:32:27.917Z,101097.47
2023-03-05T00:34:54.359Z,101094.19
2023-03-05T00:37:21.079Z,101094.22
2023-03-05T00:39:47.461Z,101092.50
2023-03-05T00:42:13.827Z,101089.28
2023-03-05T00:44:40.241Z,101092.09
2023-03-05T00:47:07.994Z,101090.56
2023-03-05T00:49:34.390Z,101086.19
2023-03-05T00:52:00.763Z,101083.94
2023-03-05T00:54:27.257Z,101083.69
2023-03-05T00:56:53.622Z,101076.50
2023-03-05T00:59:19.993Z,101065.59
2023-03-05T01:01:46.361Z,101054.84
2023-03-05T01:04:14.037Z,101061.00
2023-03-05T01:06:40.548Z,101053.25
2023-03-05T01:09:06.918Z,101052.59
2023-03-05T01:11:33.269Z,101047.13
2023-03-05T01:13:59.829Z,101041.13
2023-03-05T01:16:26.256Z,101041.13
2023-03-05T01:18:52.694Z,101042.03
2023-03-05T01:21:20.566Z,101033.34
2023-03-05T01:23:46.923Z,101032.28
2023-03-05T01:26:13.294Z,101030.91
2023-03-05T01:28:39.690Z,101031.03
2023-03-05T01:31:08.346Z,101021.78
2023-03-05T01:33:34.791Z,101019.38
2023-03-05T01:36:01.245Z,101016.41
2023-03-05T01:38:28.939Z,101013.41
2023-03-05T01:40:55.310Z,101006.78
2023-03-05T01:43:25.173Z,100998.91
2023-03-05T01:46:21.468Z,101004.09
2023-03-05T01:48:51.162Z,101003.03
2023-03-05T01:51:19.458Z,101007.59
2023-03-05T01:53:47.520Z,100995.25
2023-03-05T01:56:14.543Z,100996.28
2023-03-05T01:58:41.361Z,100990.16
2023-03-05T02:01:07.860Z,100989.97
2023-03-05T02:03:35.146Z,100988.28
2023-03-05T02:06:01.506Z,100990.47
2023-03-05T02:08:27.894Z,100990.16
2023-03-05T02:10:56.666Z,100986.69
2023-03-05T02:13:24.897Z,100978.75
2023-03-05T02:15:53.823Z,100985.47
2023-03-05T02:18:23.210Z,100972.34
2023-03-05T02:20:51.776Z,100977.84
2023-03-05T02:23:21.457Z,100977.50
2023-03-05T02:25:48.022Z,100972.91
2023-03-05T02:28:18.188Z,100963.69
2023-03-05T02:30:44.788Z,100962.94
2023-03-05T02:33:13.286Z,100958.88
2023-03-05T02:35:39.854Z,100952.91
2023-03-05T02:38:06.343Z,100954.09
2023-03-05T02:40:34.068Z,100957.03
2023-03-05T02:43:00.472Z,100940.88
2023-03-05T02:45:26.903Z,100943.66
2023-03-05T02:47:53.469Z,100945.47
2023-03-05T02:50:19.866Z,100936.72
2023-03-05T02:52:46.424Z,100931.34
2023-03-05T02:55:13.006Z,100937.06
2023-03-05T02:57:40.726Z,100932.66
2023-03-05T03:00:08.616Z,100924.72
2023-03-05T03:02:35.116Z,100933.84
2023-03-05T03:05:01.646Z,100935.59
2023-03-05T03:07:28.144Z,100925.41
2023-03-05T03:09:55.102Z,100923.81
2023-03-05T03:12:21.534Z,100925.09
2023-03-05T03:14:49.239Z,100918.09
2023-03-05T03:17:17.468Z,100923.06
2023-03-05T03:19:45.113Z,100919.09
2023-03-05T03:22:13.681Z,100912.38
2023-03-05T03:24:43.092Z,100904.78
2023-03-05T03:27:09.562Z,100911.72
2023-03-05T03:29:35.972Z,100901.91
2023-03-05T03:32:03.928Z,100896.06
2023-03-05T03:34:30.358Z,100896.44
2023-03-05T03:36:56.728Z,100896.22
2023-03-05T03:39:23.138Z,100887.25
2023-03-05T03:41:52.245Z,100889.69
2023-03-05T03:44:19.774Z,100884.41
2023-03-05T03:46:47.640Z,100884.16
2023-03-05T03:49:17.637Z,100883.56
2023-03-05T03:51:43.998Z,100883.00
2023-03-05T03:54:10.520Z,100884.47
2023-03-05T03:56:36.912Z,100882.19
2023-03-05T03:59:03.322Z,100878.22
2023-03-05T04:01:29.710Z,100877.44
2023-03-05T04:03:56.104Z,100868.13
2023-03-05T04:06:24.095Z,100869.44
2023-03-05T04:08:50.545Z,100873.41
2023-03-05T04:11:17.317Z,100868.47
2023-03-05T04:13:43.670Z,100863.59
2023-03-05T04:16:10.122Z,100857.44
2023-03-05T04:18:36.528Z,100856.75
2023-03-05T04:21:03.373Z,100856.94
2023-03-05T04:23:31.082Z,100856.31
2023-03-05T04:25:57.528Z,100847.59
2023-03-05T04:28:24.233Z,100855.25
2023-03-05T04:30:50.816Z,100846.81
2023-03-05T04:33:17.253Z,100849.13
2023-03-05T04:35:43.798Z,100842.50
2023-03-05T04:38:10.505Z,100841.00
2023-03-05T04:40:38.596Z,100832.34
2023-03-05T04:43:05.470Z,100827.22
2023-03-05T04:45:32.103Z,100832.03
2023-03-05T04:47:58.849Z,100837.25
2023-03-05T04:50:25.671Z,100835.66
2023-03-05T04:52:52.235Z,100823.72
2023-03-05T04:55:18.825Z,100823.84
2023-03-05T04:57:46.750Z,100826.78
2023-03-05T05:00:16.018Z,100821.97
2023-03-05T05:02:43.802Z,100828.34
2023-03-05T05:05:13.616Z,100820.78
2023-03-05T05:07:40.364Z,100815.22
2023-03-05T05:10:07.664Z,100822.03
2023-03-05T05:12:35.067Z,100809.38
2023-03-05T05:15:03.501Z,100818.25
2023-03-05T05:17:30.525Z,100813.00
2023-03-05T05:19:57.464Z,100814.41
2023-03-05T05:22:23.885Z,100806.53
2023-03-05T05:24:50.284Z,100817.78
2023-03-05T05:27:16.745Z,100810.06
2023-03-05T05:29:43.114Z,100812.09
2023-03-05T05:32:10.809Z,100802.78
2023-03-05T05:34:37.209Z,100799.47
2023-03-05T05:37:03.603Z,100800.69
2023-03-05T05:39:29.936Z,100800.56
2023-03-05T05:41:56.316Z,100795.13
2023-03-05T05:44:22.653Z,100799.34
2023-03-05T05:46:49.065Z,100805.88
2023-03-05T05:49:16.818Z,100799.03
2023-03-05T05:51:43.193Z,100793.72
2023-03-05T05:54:12.355Z,100792.00
2023-03-05T05:56:38.746Z,100792.78
2023-03-05T05:59:05.688Z,100783.63
2023-03-05T06:01:32.846Z,100781.97
2023-03-05T06:03:59.519Z,100785.06
2023-03-05T06:06:28.007Z,100788.81
2023-03-05T06:08:55.298Z,100788.53
2023-03-05T06:11:21.833Z,100794.09
2023-03-05T06:13:49.200Z,100786.97
2023-03-05T06:16:17.930Z,100787.19
2023-03-05T06:18:44.689Z,100789.38
2023-03-05T06:21:12.733Z,100792.91
2023-03-05T06:23:41.063Z,100800.44
2023-03-05T06:26:08.527Z,100789.19
2023-03-05T06:28:35.411Z,100800.13
2023-03-05T06:31:03.241Z,100786.56
2023-03-05T06:33:30.254Z,100789.88
2023-03-05T06:35:56.851Z,100793.25
2023-03-05T06:38:24.130Z,100799.28
2023-03-05T06:40:52.276Z,100786.88
2023-03-05T06:43:18.644Z,100784.75
2023-03-05T06:45:45.419Z,100792.78
2023-03-05T06:48:11.872Z,100784.69
2023-03-05T06:50:38.586Z,100785.22
2023-03-05T06:53:04.939Z,100781.16
2023-03-05T06:55:31.306Z,100778.84
2023-03-05T06:57:58.962Z,100775.94
2023-03-05T07:00:25.826Z,100776.88
2023-03-05T07:02:52.238Z,100779.03
2023-03-05T07:05:18.637Z,100777.75
2023-03-05T07:07:44.980Z,100778.13
2023-03-05T07:10:12.006Z,100767.91
2023-03-05T07:12:38.418Z,100776.69
2023-03-05T07:15:07.866Z,100777.16
2023-03-05T07:17:34.302Z,100771.75
2023-03-05T07:20:00.946Z,100769.97
2023-03-05T07:22:27.340Z,100769.72
2023-03-05T07:24:53.768Z,100763.72
2023-03-05T07:27:20.116Z,100766.53
2023-03-05T07:29:46.519Z,100760.09
2023-03-05T07:32:14.321Z,100763.22
2023-03-05T07:34:40.736Z,100755.50
2023-03-05T07:37:07.081Z,100763.56
2023-03-05T07:39:33.464Z,100756.53
2023-03-05T07:41:59.962Z,100755.81
2023-03-05T07:44:26.359Z,100754.19
2023-03-05T07:46:52.904Z,100754.81
2023-03-05T07:49:20.596Z,100760.75
2023-03-05T07:51:46.951Z,100756.03
2023-03-05T07:54:13.315Z,100755.78
2023-03-05T07:56:39.699Z,100755.53
2023-03-05T07:59:08.668Z,100762.63
2023-03-05T08:01:36.258Z,100759.09
2023-03-05T08:04:03.720Z,100751.53
2023-03-05T08:06:31.433Z,100749.06
2023-03-05T08:08:58.749Z,100760.78
2023-03-05T08:11:25.797Z,100745.06
2023-03-05T08:13:52.199Z,100753.41
2023-03-05T08:16:20.629Z,100745.25
2023-03-05T08:18:47.705Z,100744.03
2023-03-05T08:21:18.964Z,100747.03
2023-03-05T08:23:46.825Z,100747.53
2023-03-05T08:26:15.577Z,100750.09
2023-03-05T08:28:42.002Z,100743.59
2023-03-05T08:31:09.349Z,100746.00
2023-03-05T08:33:35.864Z,100731.09
2023-03-05T08:36:02.229Z,100731.56
2023-03-05T08:38:28.586Z,100741.06
2023-03-05T08:40:56.339Z,100739.63
2023-03-05T08:43:22.807Z,100738.88
2023-03-05T08:45:49.164Z,100740.94
2023-03-05T08:48:15.559Z,100747.41
2023-03-05T08:50:42.019Z,100740.94
2023-03-05T08:53:08.538Z,100735.13
2023-03-05T08:55:34.960Z,100736.22
2023-03-05T08:58:02.714Z,100730.25
2023-03-05T09:00:29.114Z,100736.97
2023-03-05T09:02:55.670Z,100739.44
2023-03-05T09:05:22.096Z,100740.34
2023-03-05T09:07:48.633Z,100739.91
2023-03-05T09:10:15.296Z,100740.66
2023-03-05T09:12:41.890Z,100742.19
2023-03-05T09:15:11.386Z,100730.47
2023-03-05T09:17:38.784Z,100732.59
2023-03-05T09:20:06.664Z,100729.94
2023-03-05T09:22:33.224Z,100731.19
2023-03-05T09:24:59.592Z,100730.31
2023-03-05T09:27:26.067Z,100726.66
2023-03-05T09:29:52.456Z,100728.78
2023-03-05T09:32:20.163Z,100731.19
2023-03-05T09:34:46.550Z,100724.66
2023-03-05T09:37:12.924Z,100722.53
2023-03-05T09:39:39.549Z,100712.53
2023-03-05T09:42:27.611Z,100705.97
2023-03-05T09:45:08.162Z,100703.75
2023-03-05T09:47:46.010Z,100703.50
2023-03-05T09:50:21.022Z,100702.66
2023-03-05T09:52:53.748Z,100704.31
2023-03-05T09:55:25.407Z,100707.63
2023-03-05T09:57:55.062Z,100707.59
2023-03-05T10:00:38.238Z,100702.13
2023-03-05T10:03:15.059Z,100700.47
2023-03-05T10:05:53.002Z,100698.53
2023-03-05T10:08:23.020Z,100703.75
2023-03-05T10:10:52.379Z,100700.19
2023-03-05T10:13:24.238Z,100700.94
2023-03-05T10:15:58.095Z,100697.16
2023-03-05T10:18:32.855Z,100697.00
2023-03-05T10:21:01.373Z,100683.06
2023-03-05T10:23:50.450Z,100688.41
2023-03-05T10:26:31.333Z,100688.53
2023-03-05T10:29:13.281Z,100685.25
2023-03-05T10:32:07.300Z,100674.41
2023-03-05T10:35:02.783Z,100679.88
2023-03-05T10:37:46.974Z,100665.66
2023-03-05T10:40:23.226Z,100668.38
2023-03-05T10:42:56.498Z,100660.25
2023-03-05T10:45:27.965Z,100656.75
2023-03-05T10:47:59.246Z,100660.91
2023-03-05T10:50:28.628Z,100657.19
2023-03-05T10:53:07.275Z,100653.97
2023-03-05T10:55:33.661Z,100643.13
2023-03-05T10:58:01.994Z,100643.78
2023-03-05T11:00:28.739Z,100646.59
2023-03-05T11:02:59.049Z,100642.44
2023-03-05T11:05:45.172Z,100642.06
2023-03-05T11:08:30.967Z,100651.09
2023-03-05T11:11:13.132Z,100636.16
2023-03-05T11:13:49.785Z,100621.50
2023-03-05T11:16:19.965Z,100624.22
2023-03-05T11:18:47.411Z,100616.59
2023-03-05T11:21:21.969Z,100614.44
2023-03-05T11:24:04.819Z,100613.84
2023-03-05T11:26:31.980Z,100611.81
2023-03-05T11:29:01.261Z,100601.63
2023-03-05T11:31:29.514Z,100597.84
2023-03-05T11:34:01.740Z,100601.31
2023-03-05T11:36:31.330Z,100605.88
2023-03-05T11:39:00.288Z,100605.28
2023-03-05T11:41:34.002Z,100590.91
2023-03-05T11:44:01.863Z,100595.72
2023-03-05T11:46:29.330Z,100587.44
2023-03-05T11:48:56.332Z,100591.03
2023-03-05T11:51:28.627Z,100586.63
2023-03-05T11:54:03.602Z,100596.44
2023-03-05T11:56:33.690Z,100592.34
2023-03-05T11:59:02.754Z,100583.75
2023-03-05T12:01:31.866Z,100582.50
2023-03-05T12:03:58.870Z,100575.28
2023-03-05T12:06:29.797Z,100578.44
2023-03-05T12:09:01.777Z,100570.66
2023-03-05T12:11:30.523Z,100564.81
2023-03-05T12:13:58.907Z,100562.94
2023-03-05T12:16:31.076Z,100559.09
2023-03-05T12:19:10.325Z,100559.28
2023-03-05T12:21:38.978Z,100554.94
2023-03-05T12:24:35.614Z,100560.19
2023-03-05T12:27:16.841Z,100554.94
2023-03-05T12:29:50.685Z,100550.13
2023-03-05T12:32:35.570Z,100548.66
2023-03-05T12:35:02.923Z,100542.97
2023-03-05T12:37:57.596Z,100531.06
2023-03-05T12:40:27.133Z,100511.28
2023-03-05T12:42:55.785Z,100517.84
2023-03-05T12:45:41.287Z,100506.88
2023-03-05T12:48:43.635Z,100499.66
2023-03-05T12:51:20.643Z,100503.22
2023-03-05T12:53:51.130Z,100497.88
2023-03-05T12:56:22.420Z,100494.03
2023-03-05T12:58:52.190Z,100497.38
2023-03-05T13:01:35.938Z,100495.06
2023-03-05T13:04:05.489Z,100494.72
2023-03-05T13:06:34.446Z,100495.31
2023-03-05T13:09:03.703Z,100487.78
2023-03-05T13:11:33.771Z,100482.13
2023-03-05T13:14:01.504Z,100474.59
2023-03-05T13:16:31.342Z,100482.09
2023-03-05T13:19:00.980Z,100475.22
2023-03-05T13:21:28.866Z,100466.56
2023-03-05T13:23:58.150Z,100454.66
2023-03-05T13:26:26.361Z,100454.63
2023-03-05T13:29:12.934Z,100452.75
2023-03-05T13:31:44.276Z,100446.44
2023-03-05T13:34:17.720Z,100444.13
2023-03-05T13:36:57.769Z,100439.84
2023-03-05T13:39:28.092Z,100438.31
2023-03-05T13:41:57.432Z,100439.72
2023-03-05T13:44:25.140Z,100435.78
2023-03-05T13:46:51.504Z,100428.00
2023-03-05T13:49:21.190Z,100441.84
2023-03-05T13:51:49.830Z,100432.56
2023-03-05T13:54:17.806Z,100425.13
2023-03-05T13:56:53.321Z,100433.34
2023-03-05T13:59:21.194Z,100428.41
2023-03-05T14:01:51.306Z,100423.34
2023-03-05T14:04:20.846Z,100410.28
2023-03-05T14:06:50.195Z,100410.72
2023-03-05T14:09:22.656Z,100412.59
2023-03-05T14:11:54.722Z,100402.75
2023-03-05T14:14:22.852Z,100407.44
2023-03-05T14:16:50.622Z,100397.56
2023-03-05T14:19:35.764Z,100395.56
2023-03-05T14:22:03.107Z,100390.41
2023-03-05T14:24:29.498Z,100398.13
2023-03-05T14:26:57.067Z,100394.69
2023-03-05T14:29:25.166Z,100382.75
2023-03-05T14:31:55.062Z,100377.66
2023-03-05T14:34:25.756Z,100377.56
2023-03-05T14:36:54.341Z,100372.19
2023-03-05T14:39:29.077Z,100376.56
2023-03-05T14:41:55.463Z,100365.44
2023-03-05T14:44:21.939Z,100363.22
2023-03-05T14:46:49.441Z,100360.03
2023-03-05T14:49:17.494Z,100359.16
2023-03-05T14:51:45.693Z,100349.84
2023-03-05T14:54:20.395Z,100344.03
2023-03-05T14:56:46.847Z,100338.50
2023-03-05T14:59:13.281Z,100344.97
2023-03-05T15:01:39.739Z,100335.84
2023-03-05T15:04:06.165Z,100325.16
2023-03-05T15:06:36.717Z,100325.06
2023-03-05T15:09:04.773Z,100315.69
2023-03-05T15:11:31.239Z,100317.81
2023-03-05T15:13:57.566Z,100310.47
2023-03-05T15:16:24.019Z,100312.72
2023-03-05T15:18:50.385Z,100307.94
2023-03-05T15:21:16.949Z,100303.97
2023-03-05T15:23:44.647Z,100304.06
2023-03-05T15:26:14.087Z,100303.41
2023-03-05T15:28:43.202Z,100310.22
2023-03-05T15:31:10.091Z,100305.34
2023-03-05T15:33:36.570Z,100302.94
2023-03-05T15:36:03.198Z,100301.88
2023-03-05T15:38:29.561Z,100300.91
2023-03-05T15:40:59.333Z,100293.59
2023-03-05T15:43:26.969Z,100304.09
2023-03-05T15:45:53.314Z,100294.59
2023-03-05T15:48:19.673Z,100297.88
2023-03-05T15:50:46.050Z,100283.16
2023-03-05T15:53:14.423Z,100284.56
2023-03-05T15:55:41.942Z,100281.13
2023-03-05T15:58:12.962Z,100281.47
2023-03-05T16:00:39.389Z,100279.53
2023-03-05T16:03:05.768Z,100273.78
2023-03-05T16:05:33.669Z,100269.81
2023-03-05T16:08:00.565Z,100269.91
2023-03-05T16:10:29.350Z,100267.69
2023-03-05T16:13:00.507Z,100263.88
2023-03-05T16:15:28.841Z,100269.16
2023-03-05T16:17:58.710Z,100265.56
2023-03-05T16:20:25.167Z,100266.63
2023-03-05T16:22:51.507Z,100265.19
2023-03-05T16:25:18.143Z,100261.03
2023-03-05T16:27:44.695Z,100276.75
2023-03-05T16:30:14.826Z,100267.63
2023-03-05T16:32:42.789Z,100262.31
2023-03-05T16:35:10.002Z,100269.16
2023-03-05T16:37:36.338Z,100255.50
2023-03-05T16:40:02.819Z,100249.63
2023-03-05T16:42:29.617Z,100252.41
2023-03-05T16:44:55.937Z,100253.56
2023-03-05T16:47:22.369Z,100249.56
2023-03-05T16:49:50.392Z,100252.34
2023-03-05T16:52:18.985Z,100249.34
2023-03-05T16:54:45.776Z,100246.53
2023-03-05T16:57:12.441Z,100245.31
2023-03-05T16:59:39.014Z,100239.50
2023-03-05T17:02:06.044Z,100243.09
2023-03-05T17:04:32.723Z,100244.03
2023-03-05T17:07:00.504Z,100254.81
2023-03-05T17:09:26.933Z,100249.88
2023-03-05T17:11:54.229Z,100252.09
2023-03-05T17:14:20.791Z,100247.84
2023-03-05T17:16:47.187Z,100251.16
2023-03-05T17:19:13.927Z,100257.13
2023-03-05T17:21:42.350Z,100255.41
2023-03-05T17:24:11.153Z,100259.88
2023-03-05T17:26:38.041Z,100250.09
2023-03-05T17:29:05.442Z,100243.53
2023-03-05T17:31:32.093Z,100248.78
2023-03-05T17:33:58.567Z,100241.81
2023-03-05T17:36:25.996Z,100247.72
2023-03-05T17:38:53.360Z,100246.53
2023-03-05T17:41:21.801Z,100241.31
2023-03-05T17:43:48.269Z,100237.81
2023-03-05T17:46:15.229Z,100228.19
2023-03-05T17:48:41.856Z,100231.88
2023-03-05T17:51:10.239Z,100233.63
2023-03-05T17:53:36.853Z,100232.28
2023-03-05T17:56:06.805Z,100226.13
2023-03-05T17:58:34.723Z,100231.06
2023-03-05T18:01:01.504Z,100222.78
2023-03-05T18:03:28.293Z,100231.16
2023-03-05T18:05:54.636Z,100232.31
2023-03-05T18:08:20.983Z,100234.59
2023-03-05T18:10:47.361Z,100228.59
2023-03-05T18:13:13.720Z,100238.34
2023-03-05T18:15:41.373Z,100235.00
2023-03-05T18:18:07.762Z,100233.19
2023-03-05T18:20:36.419Z,100227.84
2023-03-05T18:23:04.970Z,100220.59
2023-03-05T18:25:31.822Z,100214.56
2023-03-05T18:27:59.135Z,100214.06
2023-03-05T18:30:25.698Z,100208.19
2023-03-05T18:32:54.180Z,100204.09
2023-03-05T18:35:21.129Z,100203.75
2023-03-05T18:37:47.559Z,100213.41
2023-03-05T18:40:18.061Z,100202.00
2023-03-05T18:42:45.503Z,100200.91
2023-03-05T18:45:14.545Z,100196.50
2023-03-05T18:47:41.021Z,100197.78
2023-03-05T18:50:10.585Z,100196.25
2023-03-05T18:52:36.979Z,100191.31
2023-03-05T18:55:03.808Z,100196.28
2023-03-05T18:57:30.178Z,100192.31
2023-03-05T18:59:56.529Z,100192.09
2023-03-05T19:02:22.902Z,100181.09
2023-03-05T19:04:49.246Z,100188.00
2023-03-05T19:07:16.938Z,100186.38
2023-03-05T19:09:43.481Z,100175.59
2023-03-05T19:12:09.838Z,100177.28
2023-03-05T19:14:36.170Z,100173.75
2023-03-05T19:17:02.569Z,100171.63
2023-03-05T19:19:28.940Z,100177.84
2023-03-05T19:21:56.472Z,100174.16
2023-03-05T19:24:26.243Z,100165.94
2023-03-05T19:26:52.955Z,100162.28
2023-03-05T19:29:19.307Z,100166.06
2023-03-05T19:31:46.218Z,100164.06
2023-03-05T19:34:12.858Z,100160.78
2023-03-05T19:36:39.254Z,100155.34
2023-03-05T19:39:07.000Z,100161.63
2023-03-05T19:41:35.576Z,100159.84
2023-03-05T19:44:02.598Z,100155.97
2023-03-05T19:46:29.103Z,100147.91
2023-03-05T19:48:55.549Z,100151.03
2023-03-05T19:51:24.123Z,100148.75
2023-03-05T19:53:51.110Z,100136.63
2023-03-05T19:56:18.232Z,100134.44
2023-03-05T19:58:47.047Z,100139.94
2023-03-05T20:01:15.106Z,100143.22
2023-03-05T20:03:43.530Z,100139.66
2023-03-05T20:06:09.911Z,100141.59
2023-03-05T20:08:36.431Z,100143.38
2023-03-05T20:11:02.842Z,100140.06
2023-03-05T20:13:29.384Z,100150.16
2023-03-05T20:15:57.178Z,100134.25
2023-03-05T20:18:24.077Z,100133.91
2023-03-05T20:20:54.900Z,100134.41
2023-03-05T20:23:21.940Z,100128.47
2023-03-05T20:25:48.595Z,100136.41
2023-03-05T20:28:15.238Z,100126.13
2023-03-05T20:30:41.774Z,100121.34
2023-03-05T20:33:09.520Z,100123.81
2023-03-05T20:35:38.633Z,100114.66
2023-03-05T20:38:05.493Z,100123.28
2023-03-05T20:40:31.887Z,100119.78
2023-03-05T20:42:58.224Z,100112.56
2023-03-05T20:45:24.618Z,100112.06
2023-03-05T20:47:50.974Z,100107.00
2023-03-05T20:50:19.123Z,100113.22
2023-03-05T20:52:45.509Z,100102.13
2023-03-05T20:55:12.259Z,100102.09
2023-03-05T20:57:38.647Z,100093.03
2023-03-05T21:00:07.882Z,100093.22
2023-03-05T21:02:34.245Z,100094.91
2023-03-05T21:05:00.635Z,100091.97
2023-03-05T21:07:28.367Z,100085.88
2023-03-05T21:09:54.764Z,100085.44
2023-03-05T21:12:21.138Z,100081.50
2023-03-05T21:14:47.501Z,100078.56
2023-03-05T21:17:13.893Z,100078.50
2023-03-05T21:19:40.312Z,100054.53
2023-03-05T21:22:06.675Z,100059.22
2023-03-05T21:24:34.375Z,100056.97
2023-03-05T21:27:00.736Z,100058.03
2023-03-05T21:29:27.270Z,100059.59
2023-03-05T21:31:53.765Z,100047.00
2023-03-05T21:34:20.114Z,100053.75
2023-03-05T21:36:46.508Z,100043.81
2023-03-05T21:39:12.856Z,100043.09
2023-03-05T21:41:40.505Z,100044.53
2023-03-05T21:44:06.889Z,100040.28
2023-03-05T21:46:33.243Z,100034.38
2023-03-05T21:48:59.614Z,100033.16
2023-03-05T21:51:26.196Z,100030.66
2023-03-05T21:53:52.530Z,100028.31
2023-03-05T21:56:18.891Z,100020.81
2023-03-05T21:58:47.423Z,100018.03
2023-03-05T22:01:15.630Z,100008.41
2023-03-05T22:03:42.071Z,100018.84
2023-03-05T22:06:08.933Z,100009.31
2023-03-05T22:08:35.321Z,100003.22
2023-03-05T22:11:01.684Z,100001.16
2023-03-05T22:13:28.061Z,100002.81
2023-03-05T22:15:57.336Z,99994.38
2023-03-05T22:18:26.168Z,99998.69
2023-03-05T22:20:53.535Z,99986.94
2023-03-05T22:23:21.786Z,99989.84
2023-03-05T22:25:55.524Z,99976.47
2023-03-05T22:28:21.764Z,99977.19
2023-03-05T22:30:48.142Z,99968.00
2023-03-05T22:33:15.884Z,99973.09
2023-03-05T22:35:42.600Z,99972.91
2023-03-05T22:38:09.622Z,99968.00
2023-03-05T22:40:36.372Z,99963.09
2023-03-05T22:43:02.855Z,99957.53
2023-03-05T22:45:29.375Z,99956.72
2023-03-05T22:47:55.839Z,99950.66
2023-03-05T22:50:23.508Z,99957.19
2023-03-05T22:52:50.096Z,99957.72
2023-03-05T22:55:16.892Z,99953.84
2023-03-05T22:57:43.658Z,99942.47
2023-03-05T23:00:13.869Z,99937.34
2023-03-05T23:02:40.460Z,99932.91
2023-03-05T23:05:07.773Z,99944.38
2023-03-05T23:07:37.145Z,99940.34
2023-03-05T23:10:08.074Z,99938.84
2023-03-05T23:12:36.530Z,99936.69
2023-03-05T23:15:06.016Z,99928.94
2023-03-05T23:17:32.516Z,99930.84
2023-03-05T23:19:58.897Z,99933.00
2023-03-05T23:22:25.282Z,99932.75
2023-03-05T23:24:53.007Z,99927.19
2023-03-05T23:27:19.469Z,99926.50
2023-03-05T23:29:45.893Z,99924.78
2023-03-05T23:32:12.345Z,99922.88
2023-03-05T23:34:38.710Z,99923.56
2023-03-05T23:37:05.197Z,99921.72
2023-03-05T23:39:31.574Z,99921.22
2023-03-05T23:41:59.282Z,99920.34
2023-03-05T23:44:25.609Z,99910.88
2023-03-05T23:46:51.986Z,99912.56
2023-03-05T23:49:18.442Z,99915.88
2023-03-05T23:51:44.810Z,99909.81
2023-03-05T23:54:11.201Z,99910.50
2023-03-05T23:56:37.559Z,99908.59
2023-03-05T23:59:05.254Z,99903.03
